Time;durP1;ratioP1;P1;durP2;ratioP2;P2;SDS_P1;SDS_P2;PMS_P1;PMS_P2;Temp;Humidity;BMP_temperature;BMP_pressure;BME280_temperature;BME280_humidity;BME280_pressure;Samples;Min_cycle;Max_cycle;Signal;HPM_P1;HPM_P2
2024/02/27 00:01:52;;;;;;;35.93;27.60;;;6.10;99.90;;;;;;5096999;28;20570;-72
2024/02/27 00:04:18;;;;;;;32.97;23.27;;;6.00;99.90;;;;;;5094950;28;20224;-72
2024/02/27 00:06:43;;;;;;;38.90;28.70;;;6.10;99.90;;;;;;5095102;28;20162;-73
2024/02/27 00:09:13;;;;;;;38.73;26.33;;;6.10;99.90;;;;;;5095063;28;20610;-73
2024/02/27 00:11:39;;;;;;;37.43;27.00;;;6.10;99.90;;;;;;5094681;28;20170;-75
2024/02/27 00:14:04;;;;;;;42.67;28.03;;;6.10;99.90;;;;;;5095809;28;20646;-73
2024/02/27 00:16:30;;;;;;;36.77;26.53;;;6.10;99.90;;;;;;5113364;28;20284;-72
2024/02/27 00:18:55;;;;;;;42.10;29.73;;;6.10;99.90;;;;;;5114941;28;20184;-73
2024/02/27 00:21:21;;;;;;;35.17;25.43;;;6.10;99.90;;;;;;5114741;28;20232;-73
2024/02/27 00:23:46;;;;;;;41.03;29.13;;;6.10;99.90;;;;;;5097476;28;20567;-73
2024/02/27 00:26:12;;;;;;;40.63;29.97;;;6.10;99.90;;;;;;5093899;28;20166;-73
2024/02/27 00:28:38;;;;;;;44.70;29.70;;;6.10;99.90;;;;;;5093882;28;20201;-73
2024/02/27 00:31:03;;;;;;;43.07;29.43;;;6.10;99.90;;;;;;5094976;28;20174;-72
2024/02/27 00:33:29;;;;;;;41.80;29.40;;;6.10;99.90;;;;;;5092915;28;20191;-72
2024/02/27 00:35:54;;;;;;;41.10;29.43;;;6.10;99.90;;;;;;5095108;28;20203;-73
2024/02/27 00:38:20;;;;;;;43.73;29.90;;;6.10;99.90;;;;;;5108921;28;20285;-72
2024/02/27 00:40:46;;;;;;;43.60;29.47;;;6.10;99.90;;;;;;5114530;28;20197;-72
2024/02/27 00:43:11;;;;;;;44.33;29.73;;;6.10;99.90;;;;;;5113897;28;20172;-72
2024/02/27 00:45:37;;;;;;;44.83;29.20;;;6.20;99.90;;;;;;5113841;28;20165;-72
2024/02/27 00:48:03;;;;;;;40.17;29.50;;;6.20;99.90;;;;;;5114512;28;20196;-73
2024/02/27 00:50:30;;;;;;;42.07;28.97;;;6.10;99.90;;;;;;5108705;28;20579;-72
2024/02/27 00:52:55;;;;;;;44.70;29.97;;;6.10;99.90;;;;;;5094417;28;20240;-72
2024/02/27 00:55:21;;;;;;;40.93;28.57;;;6.10;99.90;;;;;;5094017;28;20321;-72
2024/02/27 00:57:47;;;;;;;48.37;31.13;;;6.10;99.90;;;;;;5093790;28;20193;-72
2024/02/27 01:00:13;;;;;;;48.63;32.13;;;6.10;99.90;;;;;;5091498;28;20255;-72
2024/02/27 01:02:40;;;;;;;45.47;29.67;;;6.10;99.90;;;;;;5093407;28;20541;-72
2024/02/27 01:05:07;;;;;;;43.20;29.83;;;6.00;99.90;;;;;;5092148;28;20196;-72
2024/02/27 01:07:33;;;;;;;52.10;32.20;;;6.10;99.90;;;;;;5093136;28;20558;-73
2024/02/27 01:09:59;;;;;;;45.83;29.03;;;6.10;99.90;;;;;;5093588;28;20169;-72
2024/02/27 01:12:24;;;;;;;48.90;31.50;;;6.10;99.90;;;;;;5093228;28;20673;-72
2024/02/27 01:14:50;;;;;;;44.30;30.83;;;6.10;99.90;;;;;;5092800;28;20582;-72
2024/02/27 01:17:16;;;;;;;43.60;29.80;;;6.10;99.90;;;;;;5092501;28;20223;-72
2024/02/27 01:19:42;;;;;;;44.20;31.00;;;6.10;99.90;;;;;;5107552;28;20208;-72
2024/02/27 01:22:07;;;;;;;46.37;31.27;;;6.10;99.90;;;;;;5113145;28;20234;-72
2024/02/27 01:24:33;;;;;;;48.13;29.23;;;6.10;99.90;;;;;;5113285;28;20164;-71
2024/02/27 01:26:59;;;;;;;45.23;30.37;;;6.10;99.90;;;;;;5111516;28;20176;-71
2024/02/27 01:29:25;;;;;;;47.90;30.00;;;6.10;99.90;;;;;;5112346;28;20212;-71
2024/02/27 01:31:52;;;;;;;49.83;31.03;;;6.10;99.90;;;;;;5112652;28;20176;-71
2024/02/27 01:34:17;;;;;;;45.03;30.40;;;6.10;99.90;;;;;;5111606;28;20541;-72
2024/02/27 01:36:43;;;;;;;47.97;30.77;;;6.10;99.90;;;;;;5112473;28;20172;-71
2024/02/27 01:39:09;;;;;;;47.63;30.30;;;6.10;99.90;;;;;;5112952;28;20213;-71
2024/02/27 01:41:36;;;;;;;49.27;31.47;;;6.20;99.90;;;;;;5112457;28;20303;-71
2024/02/27 01:44:02;;;;;;;50.37;31.87;;;6.20;99.90;;;;;;5112164;28;20172;-71
2024/02/27 01:46:29;;;;;;;45.00;30.33;;;6.30;99.90;;;;;;5107871;28;20177;-71
2024/02/27 01:48:56;;;;;;;45.97;30.63;;;6.20;99.90;;;;;;5092195;28;20181;-72
2024/02/27 01:51:23;;;;;;;43.03;29.90;;;6.30;99.90;;;;;;5091817;28;20169;-72
2024/02/27 01:53:53;;;;;;;42.40;29.33;;;6.30;99.90;;;;;;5091478;28;20209;-71
2024/02/27 01:56:20;;;;;;;48.80;30.83;;;6.30;99.90;;;;;;5108695;28;20598;-71
2024/02/27 01:58:47;;;;;;;42.33;29.80;;;6.40;99.90;;;;;;5112440;28;20184;-71
2024/02/27 02:01:13;;;;;;;49.10;30.00;;;6.40;99.90;;;;;;5112187;28;20309;-71
2024/02/27 02:03:40;;;;;;;45.10;30.90;;;6.40;99.90;;;;;;5111887;28;20168;-71
2024/02/27 02:06:07;;;;;;;41.97;29.97;;;6.40;99.90;;;;;;5110683;28;20175;-71
2024/02/27 02:08:33;;;;;;;41.97;30.27;;;6.50;99.90;;;;;;5112072;28;20189;-71
2024/02/27 02:11:00;;;;;;;45.07;30.77;;;6.40;99.90;;;;;;5095736;28;20537;-71
2024/02/27 02:13:27;;;;;;;47.00;30.30;;;6.40;99.90;;;;;;5091407;28;20638;-71
2024/02/27 02:15:52;;;;;;;40.97;27.63;;;6.30;99.90;;;;;;5107532;28;20267;-72
2024/02/27 02:18:18;;;;;;;42.77;29.93;;;6.30;99.90;;;;;;5111729;28;20223;-72
2024/02/27 02:20:44;;;;;;;49.83;30.43;;;6.20;99.90;;;;;;5112183;28;20269;-71
2024/02/27 02:23:09;;;;;;;46.83;29.87;;;6.10;99.90;;;;;;5111464;28;20169;-71
2024/02/27 02:25:37;;;;;;;42.83;30.73;;;6.10;99.90;;;;;;5111534;28;20172;-71
2024/02/27 02:28:04;;;;;;;42.97;30.33;;;6.10;99.90;;;;;;5096847;28;20193;-71
2024/02/27 02:30:29;;;;;;;43.60;29.87;;;6.10;99.90;;;;;;5104585;28;20181;-71
2024/02/27 02:32:55;;;;;;;46.20;30.20;;;6.10;99.90;;;;;;5112246;28;20642;-71
2024/02/27 02:35:20;;;;;;;47.60;30.80;;;6.10;99.90;;;;;;5110992;28;20165;-71
2024/02/27 02:37:48;;;;;;;41.87;27.97;;;6.10;99.90;;;;;;5111347;28;20216;-71
2024/02/27 02:40:15;;;;;;;47.23;30.17;;;6.00;99.90;;;;;;5111959;28;20279;-71
2024/02/27 02:42:41;;;;;;;50.60;31.97;;;6.00;99.90;;;;;;5113425;28;20230;-72
2024/02/27 02:45:07;;;;;;;44.50;30.77;;;6.00;99.90;;;;;;5115429;28;20161;-72
2024/02/27 02:47:33;;;;;;;48.53;31.30;;;6.00;99.90;;;;;;5113415;28;20283;-72
2024/02/27 02:49:58;;;;;;;49.43;30.87;;;5.90;99.90;;;;;;5115627;28;20165;-71
2024/02/27 02:52:24;;;;;;;53.00;32.13;;;5.90;99.90;;;;;;5113983;28;20177;-71
2024/02/27 02:54:50;;;;;;;47.80;31.33;;;5.80;99.90;;;;;;5115113;28;20172;-71
2024/02/27 02:57:16;;;;;;;48.67;31.20;;;5.80;99.90;;;;;;5115151;28;20165;-72
2024/02/27 02:59:45;;;;;;;49.37;30.67;;;5.70;99.90;;;;;;5114969;28;20179;-71
2024/02/27 03:02:11;;;;;;;48.10;32.37;;;5.70;99.90;;;;;;5108126;28;20174;-71
2024/02/27 03:04:36;;;;;;;48.33;30.93;;;5.70;99.90;;;;;;5094706;28;20177;-71
2024/02/27 03:07:02;;;;;;;53.30;33.00;;;5.70;99.90;;;;;;5094795;28;20611;-71
2024/02/27 03:09:28;;;;;;;52.70;31.63;;;5.70;99.90;;;;;;5094311;28;20193;-71
2024/02/27 03:11:54;;;;;;;47.97;31.90;;;5.70;99.90;;;;;;5094433;28;20546;-72
2024/02/27 03:14:19;;;;;;;52.40;31.13;;;5.70;99.90;;;;;;5104453;28;20180;-72
2024/02/27 03:16:46;;;;;;;49.20;29.83;;;5.70;99.90;;;;;;5115161;28;20165;-71
2024/02/27 03:19:15;;;;;;;49.97;31.63;;;5.70;99.90;;;;;;5113856;28;20196;-71
2024/02/27 03:21:40;;;;;;;53.20;32.57;;;5.70;99.90;;;;;;5114960;28;20197;-72
2024/02/27 03:24:06;;;;;;;50.30;31.13;;;5.70;99.90;;;;;;5115035;28;20252;-72
2024/02/27 03:26:31;;;;;;;48.83;31.43;;;5.80;99.90;;;;;;5114837;28;20173;-73
2024/02/27 03:28:57;;;;;;;49.93;32.03;;;5.80;99.90;;;;;;5105464;28;20201;-71
2024/02/27 03:31:23;;;;;;;53.07;31.97;;;5.80;99.90;;;;;;5094325;28;20184;-71
2024/02/27 03:33:49;;;;;;;49.80;32.30;;;5.90;99.90;;;;;;5094161;28;20174;-72
2024/02/27 03:36:15;;;;;;;48.80;30.63;;;5.80;99.90;;;;;;5094351;28;20181;-71
2024/02/27 03:38:41;;;;;;;47.63;31.73;;;5.80;99.90;;;;;;5461258;22;20192;-72
2024/02/27 03:41:13;;;;;;;50.93;33.00;;;5.90;99.90;;;;;;5114451;28;20200;-72
2024/02/27 03:43:40;;;;;;;48.07;31.17;;;5.80;99.90;;;;;;5122765;27;20534;-72
2024/02/27 03:46:06;;;;;;;50.87;31.47;;;5.80;99.90;;;;;;5135102;27;20176;-73
2024/02/27 03:48:31;;;;;;;43.90;28.00;;;5.80;99.90;;;;;;5123351;27;20665;-72
2024/02/27 03:50:57;;;;;;;46.57;30.63;;;5.80;99.90;;;;;;5114272;28;20175;-72
2024/02/27 03:53:23;;;;;;;50.80;31.50;;;5.70;99.90;;;;;;5102629;28;20178;-72
2024/02/27 03:55:48;;;;;;;49.90;31.17;;;5.70;99.90;;;;;;5093630;28;20183;-73
2024/02/27 03:58:14;;;;;;;49.03;30.83;;;5.60;99.90;;;;;;5113186;28;20193;-72
2024/02/27 04:00:39;;;;;;;52.73;31.93;;;5.60;99.90;;;;;;5109283;28;20197;-72
2024/02/27 04:03:05;;;;;;;45.73;28.17;;;5.60;99.90;;;;;;5093414;28;20239;-72
2024/02/27 04:05:30;;;;;;;49.77;31.70;;;5.50;99.90;;;;;;5093514;28;20181;-72
2024/02/27 04:07:56;;;;;;;49.00;31.27;;;5.60;99.90;;;;;;5093392;28;20602;-72
2024/02/27 04:10:22;;;;;;;49.60;30.53;;;5.60;99.90;;;;;;5093285;28;20180;-72
2024/02/27 04:12:47;;;;;;;50.00;31.00;;;5.60;99.90;;;;;;5093448;28;20170;-72
2024/02/27 04:15:13;;;;;;;51.67;31.33;;;5.60;99.90;;;;;;5093376;28;20252;-72
2024/02/27 04:17:38;;;;;;;49.00;30.83;;;5.50;99.90;;;;;;5093176;28;20323;-72
2024/02/27 04:20:05;;;;;;;55.73;33.13;;;5.40;99.90;;;;;;5093024;28;20678;-72
2024/02/27 04:22:32;;;;;;;50.57;31.27;;;5.40;99.90;;;;;;5093069;28;20176;-72
2024/02/27 04:24:58;;;;;;;52.53;32.77;;;5.40;99.90;;;;;;5101628;28;20193;-72
2024/02/27 04:27:24;;;;;;;51.80;32.03;;;5.40;99.90;;;;;;5113375;28;20641;-72
2024/02/27 04:29:49;;;;;;;51.13;33.33;;;5.40;99.90;;;;;;5104095;28;20696;-72
2024/02/27 04:32:15;;;;;;;54.90;31.37;;;5.30;99.90;;;;;;5092909;28;20286;-72
2024/02/27 04:34:44;;;;;;;51.63;32.83;;;5.30;99.90;;;;;;5092776;28;20617;-72
2024/02/27 04:37:09;;;;;;;53.83;32.87;;;5.30;99.90;;;;;;5092926;28;20696;-71
2024/02/27 04:39:35;;;;;;;56.37;34.10;;;5.30;99.90;;;;;;5092672;28;20296;-71
2024/02/27 04:42:01;;;;;;;51.90;31.77;;;5.40;99.90;;;;;;5092722;28;20635;-72
2024/02/27 04:44:27;;;;;;;55.33;31.90;;;5.40;99.90;;;;;;5099712;28;20184;-71
2024/02/27 04:46:52;;;;;;;50.27;31.30;;;5.40;99.90;;;;;;5113178;28;20241;-72
2024/02/27 04:49:18;;;;;;;53.43;33.00;;;5.40;99.90;;;;;;5112992;28;20196;-72
2024/02/27 04:51:44;;;;;;;56.73;34.07;;;5.40;99.90;;;;;;5104453;28;20547;-72
2024/02/27 04:54:09;;;;;;;59.00;33.23;;;5.40;99.90;;;;;;5092371;28;20744;-72
2024/02/27 04:56:41;;;;;;;53.27;32.70;;;5.40;99.90;;;;;;5092390;28;20177;-72
2024/02/27 04:59:06;;;;;;;51.13;31.63;;;5.40;99.90;;;;;;5092032;28;20190;-72
2024/02/27 05:01:32;;;;;;;53.97;32.50;;;5.40;99.90;;;;;;5074044;28;20211;-72
2024/02/27 05:03:58;;;;;;;51.67;31.47;;;5.40;99.90;;;;;;5091787;28;20549;-72
2024/02/27 05:06:23;;;;;;;51.67;32.67;;;5.40;99.90;;;;;;5099429;28;20215;-72
2024/02/27 05:08:49;;;;;;;51.47;32.57;;;5.30;99.90;;;;;;5112582;28;20688;-72
2024/02/27 05:11:14;;;;;;;48.37;30.73;;;5.30;99.90;;;;;;5112743;28;20172;-72
2024/02/27 05:13:40;;;;;;;56.07;32.93;;;5.30;99.90;;;;;;5112383;28;20172;-72
2024/02/27 05:16:08;;;;;;;54.47;31.93;;;5.30;99.90;;;;;;5112792;28;20222;-73
2024/02/27 05:18:34;;;;;;;53.03;32.13;;;5.30;99.90;;;;;;5112212;28;20200;-72
2024/02/27 05:21:03;;;;;;;49.67;30.93;;;5.30;99.90;;;;;;5105279;28;20201;-72
2024/02/27 05:23:29;;;;;;;50.67;31.80;;;5.30;99.90;;;;;;5112028;28;20165;-72
2024/02/27 05:25:54;;;;;;;53.97;32.07;;;5.30;99.90;;;;;;5112278;28;20233;-72
2024/02/27 05:28:20;;;;;;;47.87;31.20;;;5.30;99.90;;;;;;5112205;28;20193;-73
2024/02/27 05:30:46;;;;;;;54.10;30.57;;;5.30;99.90;;;;;;5112199;28;20325;-72
2024/02/27 05:33:12;;;;;;;54.17;31.13;;;5.30;99.90;;;;;;5112237;28;20168;-72
2024/02/27 05:35:37;;;;;;;50.93;30.67;;;5.30;99.90;;;;;;5102002;28;20174;-72
2024/02/27 05:38:03;;;;;;;51.43;31.13;;;5.30;99.90;;;;;;5091887;28;20238;-72
2024/02/27 05:40:29;;;;;;;46.47;31.03;;;5.30;99.90;;;;;;5091504;28;20197;-72
2024/02/27 05:42:55;;;;;;;47.70;31.17;;;5.30;99.90;;;;;;5091786;28;20234;-72
2024/02/27 05:45:21;;;;;;;50.97;31.30;;;5.30;99.90;;;;;;5092653;28;20194;-72
2024/02/27 05:47:46;;;;;;;48.33;32.27;;;5.40;99.90;;;;;;5091590;28;20319;-71
2024/02/27 05:50:12;;;;;;;57.20;32.87;;;5.40;99.90;;;;;;5091752;28;20173;-71
2024/02/27 05:52:37;;;;;;;50.60;31.50;;;5.30;99.90;;;;;;5091544;28;20614;-72
2024/02/27 05:55:04;;;;;;;53.27;32.10;;;5.40;99.90;;;;;;5091880;28;20244;-73
2024/02/27 05:57:29;;;;;;;55.47;31.60;;;5.30;99.90;;;;;;5091757;28;20174;-72
2024/02/27 05:59:55;;;;;;;52.47;32.50;;;5.40;99.90;;;;;;5090811;28;20181;-72
2024/02/27 06:02:20;;;;;;;48.57;30.97;;;5.40;99.90;;;;;;5091766;28;20204;-72
2024/02/27 06:04:46;;;;;;;49.23;31.20;;;5.50;99.90;;;;;;5091221;28;20177;-72
2024/02/27 06:07:11;;;;;;;43.30;28.53;;;5.50;99.90;;;;;;5091813;28;20169;-71
2024/02/27 06:09:37;;;;;;;45.93;30.53;;;5.50;99.90;;;;;;5091004;28;20566;-71
2024/02/27 06:12:03;;;;;;;53.80;32.50;;;5.50;99.90;;;;;;5091261;28;20170;-71
2024/02/27 06:14:29;;;;;;;46.10;30.47;;;5.50;99.90;;;;;;5092202;28;20257;-71
2024/02/27 06:16:55;;;;;;;50.30;29.47;;;5.50;99.90;;;;;;5095158;28;20207;-72
2024/02/27 06:19:25;;;;;;;48.63;28.97;;;5.50;99.90;;;;;;5095495;28;20656;-71
2024/02/27 06:24:36;;;;;;;53.13;32.47;;;5.50;99.90;;;;;;5094724;28;20208;-71
2024/02/27 06:27:02;;;;;;;46.20;29.33;;;5.50;99.90;;;;;;5094930;28;20169;-72
2024/02/27 06:29:28;;;;;;;46.23;30.17;;;5.50;99.90;;;;;;5106925;28;20196;-72
2024/02/27 06:31:54;;;;;;;48.30;31.63;;;5.50;99.90;;;;;;5115302;28;20176;-72
2024/02/27 06:34:20;;;;;;;47.67;29.90;;;5.50;99.90;;;;;;5114972;28;20171;-72
2024/02/27 06:36:47;;;;;;;51.67;31.83;;;5.50;99.90;;;;;;5115106;28;20177;-72
2024/02/27 06:39:12;;;;;;;45.70;31.30;;;5.40;99.90;;;;;;5114976;28;20256;-71
2024/02/27 06:41:38;;;;;;;45.63;30.13;;;5.40;99.90;;;;;;5111408;28;20201;-71
2024/02/27 06:44:04;;;;;;;46.60;30.80;;;5.40;99.90;;;;;;5094390;28;20170;-72
2024/02/27 06:46:30;;;;;;;46.27;29.80;;;5.40;99.90;;;;;;5099228;28;20266;-72
2024/02/27 06:48:57;;;;;;;50.37;30.87;;;5.50;99.90;;;;;;5094907;28;20189;-72
2024/02/27 06:51:23;;;;;;;57.37;33.20;;;5.40;99.90;;;;;;5095004;28;20544;-72
2024/02/27 06:53:48;;;;;;;50.63;31.97;;;5.40;99.90;;;;;;5094215;28;20238;-72
2024/02/27 06:56:14;;;;;;;57.50;32.43;;;5.40;99.90;;;;;;5095005;28;20178;-72
2024/02/27 06:58:40;;;;;;;52.70;33.63;;;5.40;99.90;;;;;;5093781;28;20660;-72
2024/02/27 07:01:06;;;;;;;52.80;33.77;;;5.50;99.90;;;;;;5106573;28;20295;-72
2024/02/27 07:03:31;;;;;;;52.67;33.10;;;5.50;99.90;;;;;;5113379;28;20300;-71
2024/02/27 07:06:00;;;;;;;49.20;31.90;;;5.50;99.90;;;;;;5114511;28;20165;-72
2024/02/27 07:08:26;;;;;;;53.63;32.90;;;5.50;99.90;;;;;;5114377;28;20181;-72
2024/02/27 07:10:52;;;;;;;52.47;33.53;;;5.50;99.90;;;;;;5101348;28;20239;-71
2024/02/27 07:13:18;;;;;;;49.87;32.97;;;5.50;99.90;;;;;;5093620;28;20176;-71
2024/02/27 07:15:44;;;;;;;58.60;33.83;;;5.50;99.90;;;;;;5093732;28;20169;-71
2024/02/27 07:18:11;;;;;;;55.63;33.87;;;5.60;99.90;;;;;;5093782;28;20186;-71
2024/02/27 07:20:36;;;;;;;54.33;32.90;;;5.60;99.90;;;;;;5093767;28;20276;-72
2024/02/27 07:23:02;;;;;;;54.80;34.10;;;5.60;99.90;;;;;;5094290;28;20704;-73
2024/02/27 07:25:28;;;;;;;55.40;32.93;;;5.70;99.90;;;;;;5105541;28;20200;-72
2024/02/27 07:27:53;;;;;;;54.93;34.10;;;5.80;99.90;;;;;;5113520;28;20531;-72
2024/02/27 07:30:19;;;;;;;55.93;32.90;;;5.80;99.90;;;;;;5113814;28;20181;-71
2024/02/27 07:32:45;;;;;;;55.53;35.23;;;5.90;99.90;;;;;;5113695;28;20180;-72
2024/02/27 07:35:10;;;;;;;56.73;34.00;;;6.00;99.90;;;;;;5113784;28;20172;-71
2024/02/27 07:37:38;;;;;;;55.90;35.57;;;6.10;99.90;;;;;;5111422;28;20179;-72
2024/02/27 07:40:04;;;;;;;50.93;34.67;;;6.10;99.90;;;;;;5093761;28;20205;-72
2024/02/27 07:42:29;;;;;;;51.63;34.53;;;6.20;99.90;;;;;;5093502;28;20169;-71
2024/02/27 07:44:55;;;;;;;50.30;35.10;;;6.30;99.90;;;;;;5111381;28;20537;-71
2024/02/27 07:47:20;;;;;;;53.83;35.17;;;6.40;99.90;;;;;;5113866;28;20165;-71
2024/02/27 07:49:47;;;;;;;49.20;31.47;;;6.60;99.90;;;;;;5112896;28;20672;-71
2024/02/27 07:52:13;;;;;;;54.07;34.10;;;6.70;99.90;;;;;;5093020;28;20177;-71
2024/02/27 07:54:39;;;;;;;48.20;32.90;;;6.80;99.90;;;;;;5092716;28;20551;-71
2024/02/27 07:57:06;;;;;;;49.27;31.97;;;6.80;99.90;;;;;;5093035;28;20616;-71
2024/02/27 07:59:31;;;;;;;47.60;33.07;;;6.90;99.90;;;;;;5092235;28;20262;-72
2024/02/27 08:01:57;;;;;;;41.27;29.90;;;7.00;99.90;;;;;;5092770;28;20664;-71
2024/02/27 08:04:23;;;;;;;43.93;31.17;;;7.10;99.90;;;;;;5092589;28;20515;-72
2024/02/27 08:06:48;;;;;;;44.13;30.60;;;7.20;99.90;;;;;;5112053;28;20277;-73
2024/02/27 08:09:16;;;;;;;38.27;28.60;;;7.30;99.90;;;;;;5113912;28;20184;-73
2024/02/27 08:11:42;;;;;;;42.90;30.13;;;7.50;99.90;;;;;;5113552;28;20180;-72
2024/02/27 08:14:07;;;;;;;44.03;31.10;;;7.70;99.90;;;;;;5113328;28;20172;-72
2024/02/27 08:16:33;;;;;;;40.77;28.70;;;8.10;99.90;;;;;;5113825;28;20169;-72
2024/02/27 08:19:03;;;;;;;36.73;26.60;;;8.50;99.90;;;;;;5103214;28;20201;-72
2024/02/27 08:21:30;;;;;;;36.57;24.47;;;8.60;99.90;;;;;;5092501;28;20204;-72
2024/02/27 08:23:55;;;;;;;35.13;26.07;;;8.60;99.90;;;;;;5092251;28;20261;-72
2024/02/27 08:26:21;;;;;;;33.57;25.47;;;8.60;99.90;;;;;;5092288;28;20204;-73
2024/02/27 08:28:47;;;;;;;33.97;25.90;;;8.60;99.90;;;;;;5092352;28;20215;-72
2024/02/27 08:31:12;;;;;;;36.43;24.43;;;8.50;99.90;;;;;;5092738;28;20196;-72
2024/02/27 08:33:38;;;;;;;33.90;25.73;;;8.50;99.90;;;;;;5093102;28;20181;-72
2024/02/27 08:36:04;;;;;;;32.30;24.17;;;8.30;99.90;;;;;;5092676;28;20174;-73
2024/02/27 08:38:29;;;;;;;34.43;25.43;;;8.20;99.90;;;;;;5091818;28;20200;-74
2024/02/27 08:40:55;;;;;;;33.27;24.77;;;8.20;99.90;;;;;;5092447;28;20201;-72
2024/02/27 08:43:21;;;;;;;33.23;24.47;;;8.20;99.90;;;;;;5092046;28;20170;-72
2024/02/27 08:45:46;;;;;;;30.30;24.13;;;8.20;99.90;;;;;;5092261;28;20162;-72
2024/02/27 08:48:12;;;;;;;30.57;23.50;;;8.20;99.90;;;;;;5099411;28;20249;-71
2024/02/27 08:50:37;;;;;;;33.83;25.93;;;8.20;99.90;;;;;;5112407;28;20172;-72
2024/02/27 08:53:03;;;;;;;34.57;25.40;;;8.30;99.90;;;;;;5112455;28;20222;-72
2024/02/27 08:55:30;;;;;;;36.23;25.57;;;8.40;99.90;;;;;;5112251;28;20180;-72
2024/02/27 08:57:55;;;;;;;34.20;25.60;;;8.50;99.90;;;;;;5112309;28;20222;-73
2024/02/27 09:00:21;;;;;;;34.63;25.10;;;8.40;99.90;;;;;;5112224;28;20193;-73
2024/02/27 09:02:46;;;;;;;34.03;25.37;;;8.30;99.90;;;;;;5094199;28;20234;-73
2024/02/27 09:05:12;;;;;;;32.97;25.30;;;8.40;99.90;;;;;;5091675;28;20173;-72
2024/02/27 09:07:41;;;;;;;34.43;24.73;;;8.50;99.90;;;;;;5091912;28;20747;-72
2024/02/27 09:10:11;;;;;;;32.70;24.93;;;8.50;99.90;;;;;;5094907;28;20184;-72
2024/02/27 09:12:38;;;;;;;32.50;24.67;;;8.50;99.90;;;;;;5112393;28;20168;-72
2024/02/27 09:15:04;;;;;;;35.10;25.33;;;8.60;99.90;;;;;;5111926;28;20176;-73
2024/02/27 09:17:31;;;;;;;33.07;26.23;;;8.80;99.90;;;;;;5093527;28;20224;-73
2024/02/27 09:19:59;;;;;;;32.27;25.57;;;9.10;99.90;;;;;;5091365;28;20193;-72
2024/02/27 09:22:25;;;;;;;31.80;24.43;;;9.30;99.90;;;;;;5092019;28;20186;-72
2024/02/27 09:24:51;;;;;;;31.50;23.77;;;9.30;99.90;;;;;;5091115;28;20174;-72
2024/02/27 09:27:16;;;;;;;29.20;22.67;;;9.50;99.90;;;;;;5091514;28;20165;-74
2024/02/27 09:29:43;;;;;;;28.13;21.20;;;9.60;99.90;;;;;;5092114;28;20193;-73
2024/02/27 09:32:08;;;;;;;28.70;21.37;;;9.90;99.90;;;;;;5090885;28;20212;-72
2024/02/27 09:34:34;;;;;;;27.80;21.83;;;10.10;99.90;;;;;;5090122;28;20626;-72
2024/02/27 09:37:00;;;;;;;28.40;21.10;;;10.40;99.90;;;;;;5091190;28;20174;-72
2024/02/27 09:39:25;;;;;;;26.13;19.30;;;10.80;99.90;;;;;;5125781;22;20251;-71
2024/02/27 09:42:10;;;;;;;23.73;18.37;;;11.30;99.90;;;;;;5071429;28;20216;-71
2024/02/27 09:44:44;;;;;;;21.57;17.47;;;11.40;99.90;;;;;;5071533;28;20541;-73
2024/02/27 09:47:14;;;;;;;25.10;18.83;;;11.40;99.90;;;;;;5072000;28;20212;-72
2024/02/27 09:49:41;;;;;;;25.50;20.53;;;11.40;99.90;;;;;;5071527;28;20193;-72
2024/02/27 09:52:10;;;;;;;26.10;19.97;;;11.30;99.90;;;;;;5071723;28;20170;-71
2024/02/27 09:54:37;;;;;;;26.87;21.30;;;11.20;99.90;;;;;;5072258;28;20170;-71
2024/02/27 09:57:06;;;;;;;23.60;19.40;;;11.40;99.90;;;;;;5070175;28;20224;-72
2024/02/27 09:59:32;;;;;;;24.93;20.30;;;11.40;99.90;;;;;;5052499;28;20659;-72
2024/02/27 10:02:12;;;;;;;25.57;21.40;;;11.30;99.90;;;;;;5052242;28;20198;-72
2024/02/27 10:04:38;;;;;;;24.83;20.30;;;11.20;99.90;;;;;;5052173;28;20170;-73
2024/02/27 10:07:11;;;;;;;25.07;19.47;;;11.20;99.90;;;;;;5052744;28;20173;-72
2024/02/27 10:09:44;;;;;;;26.00;19.73;;;11.30;99.90;;;;;;5052220;28;20245;-72
2024/02/27 10:12:11;;;;;;;25.83;19.50;;;11.30;99.90;;;;;;5057773;28;20239;-72
2024/02/27 10:14:37;;;;;;;23.83;18.50;;;11.40;99.90;;;;;;5071657;28;20166;-72
2024/02/27 10:17:05;;;;;;;23.40;18.83;;;11.70;99.90;;;;;;5071854;28;20170;-73
2024/02/27 10:19:31;;;;;;;22.93;18.27;;;12.00;99.90;;;;;;5072178;28;20193;-72
2024/02/27 10:21:58;;;;;;;22.97;18.20;;;12.00;99.90;;;;;;5071099;28;20332;-73
2024/02/27 10:24:25;;;;;;;21.30;17.80;;;12.10;99.90;;;;;;5071453;28;20174;-72
2024/02/27 10:26:54;;;;;;;23.87;19.17;;;12.10;99.90;;;;;;5065805;28;20695;-72
2024/02/27 10:29:27;;;;;;;24.23;19.70;;;12.10;99.90;;;;;;5050997;28;20201;-72
2024/02/27 10:31:53;;;;;;;24.67;17.80;;;12.00;99.90;;;;;;5050965;28;20174;-72
2024/02/27 10:34:19;;;;;;;23.47;18.50;;;11.80;99.90;;;;;;5051129;28;20185;-72
2024/02/27 10:36:55;;;;;;;26.73;19.53;;;11.50;99.90;;;;;;5055381;28;20182;-72
2024/02/27 10:39:21;;;;;;;27.43;20.87;;;11.20;99.90;;;;;;5071553;28;20267;-72
2024/02/27 10:41:47;;;;;;;26.27;20.23;;;10.80;99.90;;;;;;5071039;28;20206;-72
2024/02/27 10:44:12;;;;;;;27.97;19.70;;;10.90;99.90;;;;;;5071148;28;20197;-72
2024/02/27 10:46:40;;;;;;;26.93;19.93;;;11.10;99.90;;;;;;5071165;28;20654;-71
2024/02/27 10:49:07;;;;;;;22.03;18.60;;;11.60;99.90;;;;;;5071108;28;20169;-72
2024/02/27 10:51:34;;;;;;;26.80;19.27;;;11.80;99.90;;;;;;5066720;28;20258;-72
2024/02/27 10:54:02;;;;;;;28.37;19.50;;;11.60;99.90;;;;;;5050779;28;20175;-72
2024/02/27 10:56:28;;;;;;;24.03;18.53;;;11.50;99.90;;;;;;5069116;28;20243;-71
2024/02/27 10:58:54;;;;;;;24.57;19.57;;;11.30;99.90;;;;;;5070694;28;20174;-71
2024/02/27 11:01:21;;;;;;;25.43;18.37;;;11.30;99.90;;;;;;5071900;28;20300;-71
2024/02/27 11:03:53;;;;;;;22.37;18.17;;;11.30;99.90;;;;;;5074209;28;20177;-71
2024/02/27 11:06:23;;;;;;;28.50;19.63;;;11.30;99.90;;;;;;5074626;28;20457;-71
2024/02/27 11:09:03;;;;;;;27.10;20.50;;;11.10;99.90;;;;;;5074379;28;20252;-71
2024/02/27 11:11:30;;;;;;;26.50;20.33;;;10.70;99.90;;;;;;5054904;28;20205;-71
2024/02/27 11:14:04;;;;;;;27.47;18.97;;;10.60;99.90;;;;;;5054005;28;20182;-71
2024/02/27 11:16:31;;;;;;;24.80;19.87;;;10.60;99.90;;;;;;5054734;28;20175;-72
2024/02/27 11:19:00;;;;;;;25.17;19.50;;;10.80;99.90;;;;;;5054361;28;20561;-71
2024/02/27 11:21:27;;;;;;;25.27;19.93;;;11.60;99.90;;;;;;5054266;28;20705;-72
2024/02/27 11:23:53;;;;;;;24.87;19.07;;;12.30;99.90;;;;;;5054855;28;20216;-70
2024/02/27 11:26:20;;;;;;;26.70;19.43;;;12.30;99.90;;;;;;5054386;28;20182;-71
2024/02/27 11:28:47;;;;;;;25.50;19.87;;;11.80;99.90;;;;;;5054141;28;20191;-71
2024/02/27 11:31:14;;;;;;;24.87;18.90;;;11.60;99.90;;;;;;5054056;28;20190;-71
2024/02/27 11:33:47;;;;;;;22.67;18.60;;;11.90;99.90;;;;;;5068320;28;20569;-71
2024/02/27 11:36:13;;;;;;;22.90;17.93;;;12.50;99.90;;;;;;5073900;28;20171;-71
2024/02/27 11:38:42;;;;;;;20.37;16.37;;;13.00;99.90;;;;;;5073717;28;20591;-71
2024/02/27 11:41:18;;;;;;;24.67;18.40;;;13.30;99.90;;;;;;5073490;28;20209;-71
2024/02/27 11:44:04;;;;;;;21.33;17.23;;;13.60;99.90;;;;;;5073591;28;20480;-71
2024/02/27 11:46:30;;;;;;;20.87;16.70;;;13.70;99.90;;;;;;5073682;28;20177;-71
2024/02/27 11:48:57;;;;;;;20.77;16.67;;;13.70;99.90;;;;;;5054558;28;20608;-71
2024/02/27 11:51:29;;;;;;;22.13;16.83;;;13.40;99.90;;;;;;5053674;28;20171;-71
2024/02/27 11:53:55;;;;;;;20.43;16.13;;;13.30;99.90;;;;;;5069657;28;20178;-71
2024/02/27 11:56:25;;;;;;;23.40;17.37;;;13.50;99.90;;;;;;5073886;28;20170;-71
2024/02/27 11:58:53;;;;;;;22.97;18.80;;;13.40;99.90;;;;;;5073241;28;20171;-71
2024/02/27 12:01:22;;;;;;;22.77;18.97;;;13.30;99.90;;;;;;5073685;28;20236;-70
2024/02/27 12:03:48;;;;;;;24.93;19.23;;;13.10;99.90;;;;;;5073285;28;20656;-71
2024/02/27 12:06:13;;;;;;;24.20;18.97;;;12.90;99.90;;;;;;5073390;28;20166;-71
2024/02/27 12:08:46;;;;;;;25.87;20.03;;;12.70;99.90;;;;;;5071770;28;20175;-71
2024/02/27 12:11:14;;;;;;;25.33;18.60;;;12.50;99.90;;;;;;5073398;28;20194;-72
2024/02/27 12:13:40;;;;;;;23.13;18.00;;;12.80;99.90;;;;;;5072366;28;20196;-71
2024/02/27 12:16:06;;;;;;;21.80;18.00;;;13.10;99.90;;;;;;5073417;28;20197;-71
2024/02/27 12:18:32;;;;;;;24.50;18.73;;;13.30;99.90;;;;;;5073646;28;20643;-71
2024/02/27 12:21:00;;;;;;;24.03;19.00;;;12.90;99.90;;;;;;5072928;28;20198;-71
2024/02/27 12:23:27;;;;;;;24.27;18.33;;;12.50;99.90;;;;;;5071392;28;20539;-71
2024/02/27 12:25:52;;;;;;;22.60;18.00;;;12.10;99.90;;;;;;5073455;28;20170;-72
2024/02/27 12:28:18;;;;;;;26.13;19.30;;;12.00;99.90;;;;;;5073183;28;20692;-71
2024/02/27 12:30:46;;;;;;;24.17;18.33;;;11.80;99.90;;;;;;5073120;28;20194;-70
2024/02/27 12:33:13;;;;;;;24.03;19.20;;;11.80;99.90;;;;;;5072652;28;20647;-71
2024/02/27 12:35:39;;;;;;;24.00;18.57;;;11.80;99.90;;;;;;5073296;28;20166;-71